Time;durP1;ratioP1;P1;durP2;ratioP2;P2;SDS_P1;SDS_P2;PMS_P1;PMS_P2;Temp;Humidity;BMP_temperature;BMP_pressure;BME280_temperature;BME280_humidity;BME280_pressure;Samples;Min_cycle;Max_cycle;Signal;HPM_P1;HPM_P2
2023/12/21 00:00:10;;;;;;;0.70;0.22;;;;;;;7.14;93.64;99219.13;332708;28;13800;-73
2023/12/21 00:00:22;;;;;;;0.63;0.17;;;;;;;7.16;94.18;99213.91;336492;28;5447;-73
2023/12/21 00:00:35;;;;;;;0.43;0.15;;;;;;;7.19;94.17;99219.84;335189;28;4681;-73
2023/12/21 00:00:47;;;;;;;0.10;0.10;;;;;;;7.17;93.39;99206.13;336487;28;17057;-73
2023/12/21 00:00:59;;;;;;;0.10;0.10;;;;;;;7.27;93.71;99216.22;336167;28;4563;-73
2023/12/21 00:01:11;;;;;;;0.10;0.10;;;;;;;7.31;93.24;99210.09;331676;28;18429;-73
2023/12/21 00:01:23;;;;;;;0.10;0.10;;;;;;;7.26;93.01;99214.50;335240;28;4710;-73
2023/12/21 00:01:36;;;;;;;0.17;0.17;;;;;;;7.25;92.97;99212.84;333030;28;12916;-75
2023/12/21 00:01:49;;;;;;;0.20;0.20;;;;;;;7.18;93.05;99213.00;336282;28;5717;-75
2023/12/21 00:02:01;;;;;;;0.30;0.30;;;;;;;7.19;92.96;99209.50;333860;28;4724;-76
2023/12/21 00:02:13;;;;;;;0.30;0.30;;;;;;;7.20;93.00;99213.81;334532;28;4678;-76
2023/12/21 00:02:27;;;;;;;0.20;0.20;;;;;;;7.07;93.36;99209.81;331823;29;19162;-73
2023/12/21 00:02:39;;;;;;;0.13;0.13;;;;;;;7.09;93.52;99213.22;335377;28;4768;-73
2023/12/21 00:02:51;;;;;;;0.10;0.10;;;;;;;7.04;93.58;99215.06;333052;28;18420;-73
2023/12/21 00:03:03;;;;;;;0.43;0.15;;;;;;;7.08;93.55;99216.66;335524;28;5488;-73
2023/12/21 00:03:17;;;;;;;0.45;0.10;;;;;;;7.07;93.83;99215.00;335168;28;5728;-73
2023/12/21 00:03:29;;;;;;;0.50;0.15;;;;;;;7.07;93.51;99215.00;332927;28;18261;-73
2023/12/21 00:03:41;;;;;;;0.13;0.10;;;;;;;7.13;93.78;99214.84;329583;28;17805;-74
2023/12/21 00:03:53;;;;;;;0.40;0.30;;;;;;;7.13;93.36;99209.66;335952;28;6079;-76
2023/12/21 00:04:06;;;;;;;0.40;0.30;;;;;;;7.12;93.84;99222.63;335138;29;4592;-76
2023/12/21 00:04:19;;;;;;;0.40;0.25;;;;;;;7.12;93.56;99227.78;331876;28;17617;-76
2023/12/21 00:04:32;;;;;;;0.38;0.15;;;;;;;7.18;93.33;99213.00;335115;28;5059;-72
2023/12/21 00:04:44;;;;;;;0.50;0.20;;;;;;;7.27;93.33;99214.47;336215;28;4608;-73
2023/12/21 00:04:56;;;;;;;0.20;0.20;;;;;;;7.24;93.36;99213.69;336568;28;11215;-73
2023/12/21 00:05:09;;;;;;;0.10;0.10;;;;;;;7.25;93.41;99207.66;334545;28;19052;-73
2023/12/21 00:05:21;;;;;;;0.30;0.10;;;;;;;7.24;93.50;99211.13;337011;28;4625;-73
2023/12/21 00:05:33;;;;;;;0.20;0.10;;;;;;;7.25;93.16;99212.84;334610;28;19058;-73
2023/12/21 00:05:46;;;;;;;0.20;0.20;;;;;;;7.24;92.95;99211.97;336518;28;4576;-73
2023/12/21 00:05:58;;;;;;;0.60;0.20;;;;;;;7.26;92.98;99214.50;331875;28;17535;-73
2023/12/21 00:06:10;;;;;;;0.70;0.20;;;;;;;7.22;92.85;99218.06;334639;28;5449;-73
2023/12/21 00:06:24;;;;;;;1.30;0.20;;;;;;;7.25;92.80;99218.00;330896;29;19085;-73
2023/12/21 00:06:36;;;;;;;1.20;0.15;;;;;;;7.24;92.99;99211.13;330056;28;4619;-73
2023/12/21 00:06:48;;;;;;;1.20;0.20;;;;;;;7.23;93.11;99217.19;331263;28;18297;-73
2023/12/21 00:07:00;;;;;;;0.20;0.20;;;;;;;7.33;92.79;99205.72;334001;28;4949;-73
2023/12/21 00:07:13;;;;;;;0.85;0.28;;;;;;;7.39;92.67;99208.13;330289;28;17935;-73
2023/12/21 00:07:25;;;;;;;0.98;0.28;;;;;;;7.38;92.26;99209.88;334446;28;5245;-74
2023/12/21 00:07:37;;;;;;;0.35;0.25;;;;;;;7.35;92.38;99203.94;332825;28;18136;-73
2023/12/21 00:07:49;;;;;;;0.20;0.20;;;;;;;7.29;92.05;99198.94;334588;28;4589;-73
2023/12/21 00:08:02;;;;;;;0.45;0.17;;;;;;;7.31;92.12;99207.50;335074;28;4988;-73
2023/12/21 00:08:14;;;;;;;0.60;0.20;;;;;;;7.29;92.63;99204.09;327246;28;18031;-73
2023/12/21 00:08:26;;;;;;;0.30;0.20;;;;;;;7.25;92.34;99207.66;334817;28;4688;-73
2023/12/21 00:08:39;;;;;;;0.82;0.20;;;;;;;7.26;92.48;99205.00;331784;28;12724;-73
2023/12/21 00:08:51;;;;;;;0.90;0.30;;;;;;;7.34;92.36;99202.22;336474;28;4561;-73
2023/12/21 00:09:06;;;;;;;0.20;0.20;;;;;;;7.33;92.05;99205.72;334173;28;13215;-74
2023/12/21 00:09:18;;;;;;;0.10;0.10;;;;;;;7.33;92.52;99205.72;330727;28;16522;-73
2023/12/21 00:09:31;;;;;;;0.10;0.10;;;;;;;7.35;92.45;99209.13;332658;28;5224;-73
2023/12/21 00:09:43;;;;;;;0.10;0.10;;;;;;;7.34;92.20;99194.47;334764;28;9840;-73
2023/12/21 00:09:56;;;;;;;0.25;0.20;;;;;;;7.28;92.53;99202.41;336979;28;5010;-73
2023/12/21 00:10:09;;;;;;;1.23;0.30;;;;;;;7.19;92.61;99204.34;331832;28;16700;-73
2023/12/21 00:10:21;;;;;;;1.50;0.30;;;;;;;7.13;92.65;99199.31;334113;29;4655;-73
2023/12/21 00:10:33;;;;;;;0.90;0.15;;;;;;;7.16;92.92;99204.44;330943;29;4727;-73
2023/12/21 00:10:45;;;;;;;1.30;0.10;;;;;;;7.19;92.96;99201.75;333436;29;5452;-73
2023/12/21 00:10:58;;;;;;;1.10;0.10;;;;;;;7.23;92.86;99209.44;332892;29;5853;-73
2023/12/21 00:11:10;;;;;;;0.40;0.13;;;;;;;7.22;92.61;99197.38;330019;29;17908;-73
2023/12/21 00:11:22;;;;;;;0.20;0.20;;;;;;;7.20;93.00;99195.72;334133;29;4797;-73
2023/12/21 00:11:34;;;;;;;0.20;0.20;;;;;;;7.22;92.90;99198.22;330657;29;17501;-73
2023/12/21 00:11:46;;;;;;;0.22;0.22;;;;;;;7.30;92.85;99195.44;333052;29;5030;-73
2023/12/21 00:11:58;;;;;;;0.50;0.20;;;;;;;7.27;92.84;99191.22;329922;29;10005;-73
2023/12/21 00:12:10;;;;;;;0.50;0.10;;;;;;;7.28;92.44;99202.41;333424;29;4694;-73
2023/12/21 00:12:22;;;;;;;0.20;0.10;;;;;;;7.29;92.80;99193.75;334880;29;4602;-73
2023/12/21 00:12:34;;;;;;;0.20;0.10;;;;;;;7.24;92.50;99195.59;332027;28;17789;-73
2023/12/21 00:12:46;;;;;;;0.20;0.20;;;;;;;7.26;92.63;99193.84;334831;29;5017;-73
2023/12/21 00:12:58;;;;;;;0.20;0.20;;;;;;;7.25;92.23;99187.81;333881;29;4898;-73
2023/12/21 00:13:10;;;;;;;0.20;0.17;;;;;;;7.31;92.66;99191.97;331101;29;18269;-73
2023/12/21 00:13:23;;;;;;;0.20;0.20;;;;;;;7.32;92.46;99191.91;334469;29;5545;-73
2023/12/21 00:13:35;;;;;;;0.20;0.20;;;;;;;7.28;92.07;99192.06;332036;28;18105;-73
2023/12/21 00:13:48;;;;;;;0.30;0.28;;;;;;;7.27;92.16;99195.53;331454;28;5394;-73
2023/12/21 00:14:01;;;;;;;0.30;0.20;;;;;;;7.25;92.70;99197.31;332710;28;13454;-73
2023/12/21 00:14:13;;;;;;;0.40;0.20;;;;;;;7.35;92.23;99188.44;335216;28;5014;-73
2023/12/21 00:14:29;;;;;;;0.40;0.20;;;;;;;7.26;92.03;99210.19;331513;28;17969;-73
2023/12/21 00:14:42;;;;;;;0.10;0.10;;;;;;;7.32;92.11;99193.66;329643;28;18287;-73
2023/12/21 00:14:54;;;;;;;0.10;0.10;;;;;;;7.36;92.22;99195.28;334133;28;5313;-73
2023/12/21 00:15:06;;;;;;;0.10;0.10;;;;;;;7.37;91.65;99209.91;336620;28;4556;-73
2023/12/21 00:15:18;;;;;;;0.10;0.10;;;;;;;7.30;91.63;99196.28;337000;28;4610;-73
2023/12/21 00:15:30;;;;;;;0.00;0.00;;;;;;;7.27;91.92;99193.81;333899;28;5664;-73
2023/12/21 00:15:42;;;;;;;0.40;0.10;;;;;;;7.22;91.98;99192.22;336841;28;5485;-73
2023/12/21 00:15:54;;;;;;;0.47;0.10;;;;;;;7.25;92.68;99197.31;337452;28;5787;-73
2023/12/21 00:16:06;;;;;;;0.40;0.10;;;;;;;7.20;92.67;99205.16;333558;28;19201;-73
2023/12/21 00:16:19;;;;;;;0.08;0.08;;;;;;;7.22;92.52;99192.22;337143;28;5426;-73
2023/12/21 00:16:31;;;;;;;1.50;0.20;;;;;;;7.19;92.63;99182.81;334645;28;18340;-73
2023/12/21 00:16:43;;;;;;;1.50;0.20;;;;;;;7.19;92.71;99188.81;332789;28;5501;-73
2023/12/21 00:16:55;;;;;;;0.52;0.20;;;;;;;7.12;92.46;99197.66;334877;28;5476;-73
2023/12/21 00:17:07;;;;;;;0.30;0.20;;;;;;;7.12;93.05;99202.81;336500;28;4552;-73
2023/12/21 00:17:19;;;;;;;0.40;0.20;;;;;;;7.14;93.07;99201.03;336819;28;4618;-73
2023/12/21 00:17:32;;;;;;;0.30;0.20;;;;;;;7.18;92.69;99197.47;332705;28;18045;-73
2023/12/21 00:17:44;;;;;;;0.30;0.20;;;;;;;7.17;92.68;99187.19;336623;28;4584;-73
2023/12/21 00:17:57;;;;;;;0.10;0.10;;;;;;;7.16;93.16;99186.34;333688;28;17951;-73
2023/12/21 00:18:09;;;;;;;0.05;0.00;;;;;;;7.19;92.81;99188.81;330799;28;4697;-73
2023/12/21 00:18:21;;;;;;;0.10;0.00;;;;;;;7.17;93.00;99188.03;333719;28;18141;-73
2023/12/21 00:18:33;;;;;;;0.10;0.10;;;;;;;7.16;93.15;99195.81;336910;28;4566;-73
2023/12/21 00:18:45;;;;;;;0.10;0.10;;;;;;;7.14;93.12;99195.00;331040;29;18413;-73
2023/12/21 00:18:57;;;;;;;0.45;0.10;;;;;;;7.16;93.51;99199.25;333946;29;4570;-75
2023/12/21 00:19:10;;;;;;;0.52;0.17;;;;;;;7.14;93.17;99185.53;331374;29;12032;-76
2023/12/21 00:19:22;;;;;;;0.57;0.20;;;;;;;7.17;93.28;99193.19;333522;29;4860;-75
2023/12/21 00:19:34;;;;;;;0.20;0.10;;;;;;;7.22;92.95;99194.81;334483;29;4576;-73
2023/12/21 00:19:47;;;;;;;0.10;0.10;;;;;;;7.27;92.85;99180.88;331304;28;18824;-73
2023/12/21 00:19:59;;;;;;;0.10;0.10;;;;;;;7.24;92.68;99190.44;334988;29;5375;-73
2023/12/21 00:20:12;;;;;;;0.10;0.10;;;;;;;7.25;92.60;99192.16;331092;28;19161;-73
2023/12/21 00:20:24;;;;;;;0.00;0.00;;;;;;;7.25;92.81;99192.16;335121;28;4766;-73
2023/12/21 00:20:36;;;;;;;0.07;0.07;;;;;;;7.23;92.91;99189.59;332588;28;6071;-73
2023/12/21 00:20:48;;;;;;;0.08;0.08;;;;;;;7.11;92.70;99197.69;337473;28;5778;-74
2023/12/21 00:21:00;;;;;;;1.20;0.10;;;;;;;7.09;93.12;99197.72;331607;28;4613;-73
2023/12/21 00:21:12;;;;;;;1.30;0.15;;;;;;;7.09;93.07;99177.03;333247;28;17690;-75
2023/12/21 00:21:24;;;;;;;1.50;0.20;;;;;;;7.15;93.10;99201.88;336280;28;4565;-75
2023/12/21 00:21:36;;;;;;;0.30;0.20;;;;;;;7.12;93.17;99192.47;333136;28;13740;-75
2023/12/21 00:21:48;;;;;;;0.40;0.20;;;;;;;7.11;93.38;99200.25;336108;28;4866;-74
2023/12/21 00:22:00;;;;;;;0.10;0.10;;;;;;;7.13;93.26;99191.56;336986;28;4796;-73
2023/12/21 00:22:12;;;;;;;0.10;0.10;;;;;;;7.10;93.08;99189.09;332815;28;18395;-73
2023/12/21 00:22:25;;;;;;;0.08;0.00;;;;;;;7.06;93.53;99196.94;334849;28;4623;-73
2023/12/21 00:22:37;;;;;;;0.10;0.10;;;;;;;7.06;93.54;99191.75;328710;28;9710;-73
2023/12/21 00:22:49;;;;;;;0.20;0.17;;;;;;;7.05;94.03;99190.09;335910;28;5098;-73
2023/12/21 00:23:02;;;;;;;0.10;0.10;;;;;;;7.08;93.53;99189.97;334139;28;4554;-73
2023/12/21 00:23:14;;;;;;;0.05;0.05;;;;;;;7.09;93.73;99184.78;328163;28;17996;-74
2023/12/21 00:23:26;;;;;;;0.10;0.10;;;;;;;7.13;93.75;99193.31;336491;28;4771;-75
2023/12/21 00:23:38;;;;;;;0.20;0.20;;;;;;;7.13;93.97;99182.97;332440;28;19365;-75
2023/12/21 00:23:50;;;;;;;0.25;0.25;;;;;;;7.04;93.82;99194.38;335372;28;4729;-75
2023/12/21 00:24:02;;;;;;;0.20;0.20;;;;;;;7.07;93.88;99203.81;330953;28;16398;-75
2023/12/21 00:24:14;;;;;;;0.15;0.10;;;;;;;7.07;93.62;99204.66;334962;28;4553;-73
2023/12/21 00:24:27;;;;;;;0.10;0.10;;;;;;;7.02;93.68;99196.16;335968;28;4689;-73
2023/12/21 00:24:38;;;;;;;0.20;0.20;;;;;;;7.05;93.77;99193.50;333018;28;17588;-73
2023/12/21 00:24:51;;;;;;;0.17;0.10;;;;;;;7.00;93.62;99205.69;336654;28;4536;-74
2023/12/21 00:25:03;;;;;;;0.80;0.10;;;;;;;6.99;94.09;99191.09;331418;28;4661;-73
2023/12/21 00:25:15;;;;;;;0.80;0.10;;;;;;;6.93;93.81;99193.81;329582;28;5121;-73
2023/12/21 00:25:27;;;;;;;0.28;0.10;;;;;;;7.06;93.90;99202.09;334291;28;13790;-73
2023/12/21 00:25:39;;;;;;;0.10;0.10;;;;;;;7.02;94.08;99190.97;336629;28;4510;-73
2023/12/21 00:25:51;;;;;;;0.20;0.10;;;;;;;7.08;93.64;99184.81;334721;29;4562;-73
2023/12/21 00:26:03;;;;;;;0.15;0.10;;;;;;;7.02;93.92;99206.50;332472;29;16719;-73
2023/12/21 00:26:15;;;;;;;0.13;0.10;;;;;;;7.04;93.53;99209.88;334717;28;4632;-73
2023/12/21 00:26:27;;;;;;;0.10;0.10;;;;;;;7.02;93.88;99201.31;333809;28;16507;-73
2023/12/21 00:26:40;;;;;;;0.30;0.10;;;;;;;7.08;94.04;99206.34;335829;28;4549;-73
2023/12/21 00:26:52;;;;;;;0.50;0.20;;;;;;;7.09;94.18;99186.53;334753;28;4568;-73
2023/12/21 00:27:04;;;;;;;0.40;0.20;;;;;;;7.11;93.71;99192.50;333998;28;16803;-73
2023/12/21 00:27:16;;;;;;;0.13;0.10;;;;;;;7.10;93.57;99193.38;333787;29;4725;-74
2023/12/21 00:27:28;;;;;;;0.20;0.20;;;;;;;7.11;93.96;99195.09;331627;29;13627;-75
2023/12/21 00:27:41;;;;;;;0.15;0.15;;;;;;;7.09;93.50;99189.94;335247;29;4755;-75
2023/12/21 00:27:55;;;;;;;0.10;0.10;;;;;;;7.03;94.25;99197.88;332567;28;8629;-75
2023/12/21 00:28:07;;;;;;;0.10;0.10;;;;;;;7.03;94.48;99186.69;334063;29;4581;-73
2023/12/21 00:28:19;;;;;;;0.10;0.10;;;;;;;6.94;94.63;99185.16;333137;28;16210;-73
2023/12/21 00:28:31;;;;;;;0.20;0.10;;;;;;;6.91;94.80;99187.84;335875;28;5391;-73
2023/12/21 00:28:43;;;;;;;0.20;0.20;;;;;;;6.93;94.82;99191.25;332052;29;18241;-73
2023/12/21 00:28:56;;;;;;;0.10;0.10;;;;;;;6.95;94.54;99194.63;333515;29;4873;-73
2023/12/21 00:29:08;;;;;;;0.20;0.10;;;;;;;6.99;94.74;99185.91;332055;29;5303;-73
2023/12/21 00:29:20;;;;;;;0.30;0.10;;;;;;;7.05;94.67;99196.09;332843;29;17951;-75
2023/12/21 00:29:32;;;;;;;0.30;0.10;;;;;;;7.05;94.43;99187.50;334765;29;5393;-75
2023/12/21 00:29:44;;;;;;;0.10;0.10;;;;;;;7.04;94.29;99188.38;330128;29;17587;-75
2023/12/21 00:29:56;;;;;;;0.10;0.10;;;;;;;7.06;93.93;99210.69;333016;29;17357;-75
2023/12/21 00:30:09;;;;;;;0.10;0.10;;;;;;;7.07;93.92;99171.06;334128;29;4718;-75
2023/12/21 00:30:21;;;;;;;0.90;0.10;;;;;;;7.10;94.03;99194.25;331398;29;18154;-73
2023/12/21 00:30:33;;;;;;;0.90;0.10;;;;;;;7.10;94.17;99189.09;333323;29;4764;-73
2023/12/21 00:30:45;;;;;;;0.70;0.03;;;;;;;7.10;94.05;99198.53;331648;29;17133;-73
2023/12/21 00:30:58;;;;;;;0.10;0.10;;;;;;;7.08;94.24;99196.00;334225;29;5265;-74
2023/12/21 00:31:10;;;;;;;0.20;0.10;;;;;;;7.07;94.17;99191.72;331985;28;11226;-73
2023/12/21 00:31:22;;;;;;;0.32;0.10;;;;;;;7.06;94.44;99184.84;336195;29;5345;-73
2023/12/21 00:31:35;;;;;;;0.30;0.10;;;;;;;7.07;94.39;99193.47;335241;28;13419;-75
2023/12/21 00:31:47;;;;;;;0.25;0.10;;;;;;;7.16;94.25;99188.06;337344;28;4739;-75
2023/12/21 00:31:59;;;;;;;0.10;0.10;;;;;;;7.10;94.27;99194.25;334385;28;18076;-75
2023/12/21 00:32:11;;;;;;;0.10;0.10;;;;;;;7.11;93.78;99177.84;336522;28;6190;-75
2023/12/21 00:32:24;;;;;;;0.20;0.10;;;;;;;7.23;93.77;99188.75;336294;28;18180;-73
2023/12/21 00:32:36;;;;;;;0.20;0.03;;;;;;;7.24;93.83;99185.28;333452;28;17334;-73
2023/12/21 00:32:49;;;;;;;0.10;0.05;;;;;;;7.24;92.98;99188.69;329869;28;4705;-73
2023/12/21 00:33:01;;;;;;;0.10;0.10;;;;;;;7.20;93.75;99195.72;335981;29;5280;-73
2023/12/21 00:33:13;;;;;;;0.10;0.10;;;;;;;7.19;93.47;99214.69;332305;28;4814;-73
2023/12/21 00:33:25;;;;;;;0.10;0.10;;;;;;;7.17;93.27;99185.44;331364;28;18190;-73
2023/12/21 00:33:38;;;;;;;0.10;0.10;;;;;;;7.17;93.39;99182.00;333921;29;5584;-74
2023/12/21 00:33:50;;;;;;;0.10;0.10;;;;;;;7.20;93.47;99180.19;332058;29;18160;-75
2023/12/21 00:34:02;;;;;;;0.05;0.05;;;;;;;7.20;93.96;99195.72;328472;29;5242;-75
2023/12/21 00:34:14;;;;;;;0.10;0.10;;;;;;;7.17;93.88;99177.69;331708;29;5049;-75
2023/12/21 00:34:27;;;;;;;0.10;0.10;;;;;;;7.23;93.80;99158.56;329553;29;17539;-75
2023/12/21 00:34:39;;;;;;;0.10;0.05;;;;;;;7.29;93.68;99193.75;331730;29;4853;-75
2023/12/21 00:34:52;;;;;;;0.10;0.10;;;;;;;7.27;93.20;99174.88;329947;29;18031;-75
2023/12/21 00:35:05;;;;;;;0.52;0.20;;;;;;;7.27;93.38;99185.19;333565;29;4940;-75
2023/12/21 00:35:17;;;;;;;0.70;0.30;;;;;;;7.27;93.19;99167.94;330884;28;18260;-75
2023/12/21 00:35:29;;;;;;;0.52;0.22;;;;;;;7.13;93.68;99183.81;331592;29;5428;-75
2023/12/21 00:35:41;;;;;;;0.20;0.10;;;;;;;7.09;93.56;99184.78;333166;28;18425;-75
2023/12/21 00:35:53;;;;;;;0.20;0.10;;;;;;;7.03;94.07;99179.78;335793;28;4707;-75
2023/12/21 00:36:05;;;;;;;0.20;0.10;;;;;;;7.04;94.10;99173.72;332961;28;11558;-75
2023/12/21 00:36:17;;;;;;;0.10;0.10;;;;;;;7.00;94.41;99183.28;335274;28;4797;-76
2023/12/21 00:36:30;;;;;;;0.10;0.10;;;;;;;6.97;94.82;99188.53;336025;28;4650;-75
2023/12/21 00:36:42;;;;;;;0.05;0.05;;;;;;;6.94;94.80;99192.91;334162;28;18016;-75
2023/12/21 00:36:54;;;;;;;0.03;0.03;;;;;;;6.94;94.72;99177.41;337129;28;4585;-74
2023/12/21 00:37:07;;;;;;;0.08;0.00;;;;;;;6.94;95.56;99187.75;333714;28;4703;-73
2023/12/21 00:37:21;;;;;;;0.10;0.00;;;;;;;6.97;95.42;99192.84;335365;28;4678;-73
2023/12/21 00:37:36;;;;;;;0.10;0.00;;;;;;;7.04;94.50;99160.78;334409;28;18046;-73
2023/12/21 00:37:49;;;;;;;0.00;0.00;;;;;;;7.07;94.52;99178.81;333513;28;17703;-73
2023/12/21 00:38:01;;;;;;;0.03;0.03;;;;;;;7.03;94.64;99182.38;333111;28;16421;-73
2023/12/21 00:38:13;;;;;;;0.10;0.10;;;;;;;6.97;95.03;99172.19;335723;28;4605;-75
2023/12/21 00:38:26;;;;;;;0.13;0.10;;;;;;;6.98;94.83;99181.63;336869;28;4889;-75
2023/12/21 00:38:38;;;;;;;0.20;0.10;;;;;;;6.98;95.10;99184.19;329143;28;18061;-75
2023/12/21 00:38:50;;;;;;;0.20;0.10;;;;;;;6.97;95.41;99167.84;337275;28;5393;-75
2023/12/21 00:39:02;;;;;;;0.30;0.10;;;;;;;7.01;95.40;99153.13;333966;28;18180;-73
2023/12/21 00:39:14;;;;;;;0.45;0.15;;;;;;;6.98;94.96;99184.19;336378;28;4686;-74
2023/12/21 00:39:26;;;;;;;0.43;0.15;;;;;;;6.93;95.68;99175.72;337429;28;4894;-73
2023/12/21 00:39:40;;;;;;;0.30;0.10;;;;;;;6.97;95.82;99177.34;334695;28;18136;-73
2023/12/21 00:39:52;;;;;;;0.10;0.10;;;;;;;6.97;95.64;99167.84;332849;28;18330;-73
2023/12/21 00:40:05;;;;;;;0.10;0.10;;;;;;;6.94;95.34;99177.41;333676;28;14571;-73
2023/12/21 00:40:17;;;;;;;0.10;0.10;;;;;;;7.06;95.32;99182.25;332537;28;15917;-73
2023/12/21 00:40:29;;;;;;;0.10;0.10;;;;;;;6.98;95.71;99184.19;337058;28;4684;-75
2023/12/21 00:40:42;;;;;;;0.13;0.13;;;;;;;7.00;95.21;99183.28;335576;28;12943;-75
2023/12/21 00:40:54;;;;;;;0.10;0.10;;;;;;;6.98;95.38;99179.03;334746;28;18220;-75
2023/12/21 00:41:06;;;;;;;0.10;0.10;;;;;;;6.94;95.70;99192.91;336672;28;4752;-75
2023/12/21 00:41:18;;;;;;;0.00;0.00;;;;;;;7.00;95.84;99179.84;334263;28;18075;-75
2023/12/21 00:41:30;;;;;;;0.15;0.10;;;;;;;6.99;96.02;99180.75;332854;28;4670;-73
2023/12/21 00:41:42;;;;;;;0.20;0.10;;;;;;;6.98;95.74;99171.28;335647;28;5354;-73
2023/12/21 00:41:54;;;;;;;0.13;0.10;;;;;;;7.03;95.62;99176.34;329849;28;17881;-73
2023/12/21 00:42:06;;;;;;;0.10;0.10;;;;;;;7.02;95.53;99172.06;334100;28;5415;-73
2023/12/21 00:42:18;;;;;;;0.10;0.10;;;;;;;7.05;95.47;99180.59;333526;28;16054;-73
2023/12/21 00:42:32;;;;;;;0.10;0.10;;;;;;;6.99;95.51;99180.75;335791;28;4628;-73
2023/12/21 00:42:45;;;;;;;0.00;0.00;;;;;;;7.05;95.76;99180.59;333178;28;17182;-74
2023/12/21 00:42:57;;;;;;;0.00;0.00;;;;;;;7.05;95.71;99172.84;331064;28;4805;-75
2023/12/21 00:43:09;;;;;;;0.00;0.00;;;;;;;6.99;95.55;99185.91;330491;28;18345;-75
2023/12/21 00:43:22;;;;;;;0.10;0.10;;;;;;;7.01;95.45;99184.13;331773;29;5956;-75
2023/12/21 00:43:34;;;;;;;0.10;0.10;;;;;;;6.98;95.92;99177.31;331988;29;4712;-75
2023/12/21 00:43:46;;;;;;;0.10;0.10;;;;;;;6.94;96.03;99178.28;332254;29;4686;-73
2023/12/21 00:43:58;;;;;;;0.10;0.10;;;;;;;6.95;95.50;99184.28;332073;29;19242;-73
2023/12/21 00:44:10;;;;;;;0.10;0.10;;;;;;;6.91;95.78;99173.19;334243;28;5192;-74
2023/12/21 00:44:22;;;;;;;0.10;0.10;;;;;;;6.97;95.69;99182.53;333901;29;9612;-73
2023/12/21 00:44:35;;;;;;;0.08;0.00;;;;;;;6.96;95.76;99165.31;331473;29;17793;-73
2023/12/21 00:44:50;;;;;;;0.10;0.10;;;;;;;6.98;96.19;99179.91;328264;29;17823;-74
2023/12/21 00:45:04;;;;;;;0.10;0.10;;;;;;;6.93;95.70;99186.06;333712;29;5521;-75
2023/12/21 00:45:16;;;;;;;0.03;0.03;;;;;;;6.99;95.70;99175.56;331071;29;18198;-75
2023/12/21 00:45:28;;;;;;;0.08;0.08;;;;;;;6.94;96.03;99193.78;334524;29;5444;-75
2023/12/21 00:45:40;;;;;;;0.00;0.00;;;;;;;6.92;96.39;99194.69;333789;28;14859;-74
2023/12/21 00:45:53;;;;;;;0.10;0.10;;;;;;;6.98;95.94;99171.28;331433;28;5228;-73
2023/12/21 00:46:05;;;;;;;0.10;0.10;;;;;;;7.01;95.94;99176.38;334018;28;5233;-73
2023/12/21 00:46:17;;;;;;;0.10;0.10;;;;;;;7.02;95.92;99165.16;335253;28;4684;-73
2023/12/21 00:46:29;;;;;;;0.30;0.20;;;;;;;7.02;95.86;99165.16;332652;28;13349;-73
2023/12/21 00:46:41;;;;;;;0.30;0.20;;;;;;;7.04;96.01;99172.88;336098;28;4875;-73
2023/12/21 00:46:53;;;;;;;0.10;0.10;;;;;;;7.09;95.58;99171.88;336172;28;5312;-73
2023/12/21 00:47:05;;;;;;;0.10;0.10;;;;;;;7.05;95.62;99141.81;327892;28;19140;-74
2023/12/21 00:47:17;;;;;;;0.10;0.10;;;;;;;7.05;95.42;99156.50;335341;28;5660;-75
2023/12/21 00:47:31;;;;;;;0.03;0.03;;;;;;;7.07;95.39;99167.63;332487;28;18038;-75
2023/12/21 00:47:43;;;;;;;0.00;0.00;;;;;;;7.07;95.36;99168.47;333734;28;13827;-75
2023/12/21 00:47:56;;;;;;;0.00;0.00;;;;;;;7.04;95.48;99167.69;332911;28;19250;-73
2023/12/21 00:48:08;;;;;;;0.90;0.10;;;;;;;7.00;95.34;99172.09;336670;28;4647;-73
2023/12/21 00:48:20;;;;;;;0.90;0.10;;;;;;;7.04;95.92;99149.59;334545;28;18313;-73
2023/12/21 00:48:32;;;;;;;0.15;0.15;;;;;;;7.03;95.69;99166.84;330450;28;4649;-73
2023/12/21 00:48:45;;;;;;;0.10;0.10;;;;;;;6.99;95.45;99160.06;332135;28;18268;-73
2023/12/21 00:48:57;;;;;;;0.17;0.17;;;;;;;6.94;96.26;99167.94;336247;28;4762;-73
2023/12/21 00:49:09;;;;;;;0.32;0.13;;;;;;;6.99;96.45;99157.50;332300;28;18087;-73
2023/12/21 00:49:21;;;;;;;0.38;0.13;;;;;;;7.04;96.03;99167.69;336138;28;5418;-75
2023/12/21 00:49:34;;;;;;;0.10;0.10;;;;;;;6.99;96.01;99167.81;334008;28;13244;-75
2023/12/21 00:49:46;;;;;;;0.10;0.10;;;;;;;6.99;96.26;99167.81;332492;28;18355;-75
2023/12/21 00:49:58;;;;;;;0.10;0.10;;;;;;;7.03;96.03;99141.00;334456;28;4807;-75
2023/12/21 00:50:10;;;;;;;0.10;0.10;;;;;;;7.07;95.67;99145.22;330775;28;18385;-75
2023/12/21 00:50:22;;;;;;;0.20;0.10;;;;;;;7.10;95.85;99145.16;335423;28;4670;-75
2023/12/21 00:50:35;;;;;;;0.20;0.00;;;;;;;7.11;95.55;99167.50;335434;28;5252;-75
2023/12/21 00:50:46;;;;;;;0.10;0.00;;;;;;;7.15;95.28;99156.19;333235;28;17321;-75
2023/12/21 00:50:59;;;;;;;0.00;0.00;;;;;;;7.10;95.31;99178.75;336494;28;5358;-74
2023/12/21 00:51:11;;;;;;;0.00;0.00;;;;;;;7.16;95.22;99154.44;331650;28;4669;-73
2023/12/21 00:51:22;;;;;;;0.00;0.00;;;;;;;7.17;95.15;99179.41;335878;28;4646;-73
2023/12/21 00:51:35;;;;;;;0.15;0.15;;;;;;;7.11;95.04;99169.25;335953;28;4634;-75
2023/12/21 00:51:47;;;;;;;0.20;0.20;;;;;;;7.04;95.26;99158.19;331586;28;5434;-75
2023/12/21 00:51:59;;;;;;;0.20;0.13;;;;;;;7.00;95.66;99154.00;337315;28;6793;-75
2023/12/21 00:52:11;;;;;;;0.10;0.03;;;;;;;6.97;95.99;99157.53;334062;28;5489;-75
2023/12/21 00:52:23;;;;;;;0.08;0.00;;;;;;;6.98;95.78;99142.84;337062;28;4786;-75
2023/12/21 00:52:36;;;;;;;0.10;0.10;;;;;;;6.96;96.20;99162.72;337867;28;4785;-75
2023/12/21 00:52:48;;;;;;;0.10;0.10;;;;;;;6.95;96.22;99156.72;333354;28;18717;-73
2023/12/21 00:53:00;;;;;;;0.10;0.10;;;;;;;6.89;96.45;99163.78;331338;28;4875;-74
2023/12/21 00:53:12;;;;;;;0.10;0.10;;;;;;;6.92;96.66;99145.59;333313;28;17831;-73
2023/12/21 00:53:24;;;;;;;0.10;0.10;;;;;;;6.97;96.28;99147.19;336918;28;4692;-73
2023/12/21 00:53:36;;;;;;;0.10;0.10;;;;;;;7.06;96.33;99146.09;333313;28;18365;-73
2023/12/21 00:53:48;;;;;;;0.10;0.10;;;;;;;7.02;96.29;99159.97;336230;28;4663;-75
2023/12/21 00:54:00;;;;;;;0.00;0.00;;;;;;;7.12;96.04;99161.47;336672;28;4960;-74
2023/12/21 00:54:12;;;;;;;0.00;0.00;;;;;;;7.18;95.79;99150.09;333084;28;18363;-75
2023/12/21 00:54:24;;;;;;;0.10;0.10;;;;;;;7.14;95.84;99141.59;336984;28;5445;-75
2023/12/21 00:54:36;;;;;;;0.13;0.13;;;;;;;7.09;96.12;99146.03;332378;28;5453;-75
2023/12/21 00:54:50;;;;;;;0.20;0.20;;;;;;;7.07;95.72;99150.38;333255;28;18081;-73
2023/12/21 00:55:02;;;;;;;0.17;0.17;;;;;;;7.04;95.73;99163.38;333931;28;5770;-73
2023/12/21 00:55:14;;;;;;;0.10;0.10;;;;;;;7.06;95.49;99151.25;335172;28;6340;-73
2023/12/21 00:55:26;;;;;;;0.10;0.10;;;;;;;7.08;95.79;99133.97;337415;28;4618;-73
2023/12/21 00:55:38;;;;;;;0.10;0.10;;;;;;;7.11;95.32;99149.41;332763;28;18220;-73
2023/12/21 00:55:51;;;;;;;0.50;0.10;;;;;;;7.14;95.09;99140.72;337161;28;4715;-73
2023/12/21 00:56:03;;;;;;;1.30;0.15;;;;;;;7.08;95.67;99139.13;334533;28;12567;-75
2023/12/21 00:56:15;;;;;;;0.98;0.13;;;;;;;7.04;95.21;99168.53;331315;28;5346;-75
2023/12/21 00:56:27;;;;;;;0.38;0.10;;;;;;;7.02;95.45;99147.06;337139;28;4802;-75
2023/12/21 00:56:39;;;;;;;0.20;0.10;;;;;;;7.05;95.52;99135.81;332507;28;7303;-75
2023/12/21 00:56:51;;;;;;;0.30;0.20;;;;;;;7.07;95.84;99152.97;335169;28;4671;-75
2023/12/21 00:57:03;;;;;;;0.20;0.10;;;;;;;7.03;95.26;99141.00;332374;28;17590;-73
2023/12/21 00:57:18;;;;;;;0.50;0.10;;;;;;;7.13;95.34;99134.72;331438;28;18218;-73
2023/12/21 00:57:30;;;;;;;0.90;0.15;;;;;;;7.09;95.41;99120.19;335562;28;4655;-73
2023/12/21 00:57:42;;;;;;;1.10;0.20;;;;;;;7.16;95.52;99119.13;336184;28;4616;-73
2023/12/21 00:57:55;;;;;;;1.20;0.20;;;;;;;7.16;95.15;99126.00;332104;29;18163;-73
2023/12/21 00:58:07;;;;;;;0.40;0.10;;;;;;;7.08;95.59;99141.72;333550;29;5725;-73
2023/12/21 00:58:19;;;;;;;0.05;0.03;;;;;;;7.06;95.66;99135.75;332094;29;17014;-75
2023/12/21 00:58:31;;;;;;;0.70;0.08;;;;;;;6.98;95.31;99135.09;334970;29;4721;-75
2023/12/21 00:58:43;;;;;;;0.80;0.10;;;;;;;6.98;95.46;99153.19;333000;28;18408;-75
2023/12/21 00:58:59;;;;;;;1.08;0.20;;;;;;;7.01;96.08;99140.22;335413;28;4678;-75
2023/12/21 00:59:11;;;;;;;0.30;0.20;;;;;;;6.92;95.98;99135.25;332462;28;17208;-75
2023/12/21 00:59:23;;;;;;;0.25;0.17;;;;;;;6.94;95.84;99136.06;333058;28;13628;-73
2023/12/21 00:59:35;;;;;;;0.10;0.10;;;;;;;7.00;96.12;99130.75;335703;28;5396;-73
2023/12/21 00:59:47;;;;;;;0.05;0.05;;;;;;;6.98;96.72;99133.41;334825;29;4610;-73
2023/12/21 00:59:59;;;;;;;0.08;0.08;;;;;;;7.02;96.33;99121.22;331537;28;18541;-73